createdAt,value
2022-10-02T05:35:02.413Z,13.80
2022-10-02T05:40:28.158Z,13.80
2022-10-02T05:45:35.784Z,13.90
2022-10-02T05:50:38.178Z,13.90
2022-10-02T05:55:46.112Z,13.90
2022-10-02T06:01:02.475Z,13.90
2022-10-02T06:06:33.585Z,13.90
2022-10-02T06:11:41.774Z,13.90
2022-10-02T06:16:57.328Z,13.90
2022-10-02T06:22:19.135Z,13.90
2022-10-02T06:27:35.895Z,13.90
2022-10-02T06:32:58.308Z,13.90
2022-10-02T06:38:19.234Z,13.90
2022-10-02T06:43:33.218Z,13.90
2022-10-02T06:48:46.238Z,13.90
2022-10-02T06:54:19.093Z,13.90
2022-10-02T06:59:52.007Z,13.90
2022-10-02T07:05:30.797Z,13.90
2022-10-02T07:11:10.730Z,13.90
2022-10-02T07:16:20.748Z,14.00
2022-10-02T07:21:29.404Z,14.00
2022-10-02T07:26:48.082Z,14.00
2022-10-02T07:31:56.032Z,14.10
2022-10-02T07:37:18.149Z,14.10
2022-10-02T07:42:34.227Z,14.10
2022-10-02T07:47:51.287Z,14.10
2022-10-02T07:52:58.968Z,14.10
2022-10-02T07:58:14.128Z,14.20
2022-10-02T08:03:23.400Z,14.20
2022-10-02T08:08:34.810Z,14.30
2022-10-02T08:13:47.814Z,14.30
2022-10-02T08:19:18.970Z,14.40
2022-10-02T08:24:25.166Z,14.40
2022-10-02T08:29:40.558Z,14.50
2022-10-02T08:34:44.163Z,14.50
2022-10-02T08:39:50.573Z,14.50
2022-10-02T08:45:11.309Z,14.50
2022-10-02T08:50:20.025Z,14.60
2022-10-02T08:56:03.308Z,14.70
2022-10-02T09:01:17.398Z,14.70
2022-10-02T09:06:56.518Z,14.70
2022-10-02T09:12:27.730Z,14.80
2022-10-02T09:17:49.678Z,14.90
2022-10-02T09:23:26.798Z,15.00
2022-10-02T09:28:43.845Z,15.10
2022-10-02T09:34:20.088Z,15.10
2022-10-02T09:40:02.085Z,15.20
2022-10-02T09:45:19.183Z,15.20
2022-10-02T09:50:45.569Z,15.30
2022-10-02T09:56:20.904Z,15.30
2022-10-02T10:02:00.374Z,15.40
2022-10-02T10:07:35.715Z,15.50
2022-10-02T10:12:49.473Z,15.50
2022-10-02T10:18:26.791Z,15.60
2022-10-02T10:23:36.092Z,15.60
2022-10-02T10:28:59.719Z,15.60
2022-10-02T10:34:33.641Z,15.70
2022-10-02T10:40:06.784Z,15.70
2022-10-02T10:45:29.689Z,15.70
2022-10-02T10:50:53.950Z,15.60
2022-10-02T10:56:37.101Z,15.50
2022-10-02T11:02:14.052Z,15.50
2022-10-02T11:07:32.444Z,15.60
2022-10-02T11:12:57.333Z,15.60
2022-10-02T11:18:08.276Z,15.60
2022-10-02T11:23:41.495Z,15.70
2022-10-02T11:29:05.560Z,15.80
2022-10-02T11:34:26.299Z,15.80
2022-10-02T11:39:37.307Z,15.90
2022-10-02T11:45:24.059Z,15.80
2022-10-02T11:50:40.915Z,15.80
2022-10-02T11:56:06.869Z,15.70
2022-10-02T12:01:38.500Z,15.80
2022-10-02T12:07:00.726Z,15.80
2022-10-02T12:12:15.001Z,16.00
2022-10-02T12:17:35.417Z,16.20
2022-10-02T12:23:11.261Z,16.40
2022-10-02T12:28:22.899Z,16.60
2022-10-02T12:33:56.579Z,16.80
2022-10-02T12:39:21.287Z,16.60
2022-10-02T12:44:32.195Z,16.30
2022-10-02T12:50:00.128Z,16.00
2022-10-02T12:55:11.167Z,15.80
2022-10-02T13:00:17.787Z,15.80
2022-10-02T13:05:57.084Z,16.10
2022-10-02T13:11:08.887Z,16.40
2022-10-02T13:16:31.258Z,16.70
2022-10-02T13:22:10.147Z,16.90
2022-10-02T13:27:40.264Z,17.10
2022-10-02T13:32:52.448Z,17.20
2022-10-02T13:38:24.487Z,17.30
2022-10-02T13:43:52.532Z,17.70
2022-10-02T13:49:26.268Z,17.90
2022-10-02T13:55:06.806Z,18.10
2022-10-02T14:00:22.306Z,18.40
2022-10-02T14:05:27.271Z,18.70
2022-10-02T14:10:29.076Z,18.90
2022-10-02T14:15:31.606Z,19.20
2022-10-02T14:20:49.017Z,19.30
2022-10-02T14:26:24.619Z,19.50
2022-10-02T14:31:35.948Z,19.60
2022-10-02T14:36:50.691Z,19.80
2022-10-02T14:42:00.252Z,20.00
2022-10-02T14:47:18.427Z,20.10
2022-10-02T14:53:01.972Z,20.20
2022-10-02T14:58:19.660Z,20.30
2022-10-02T15:04:04.618Z,20.00
2022-10-02T15:09:14.924Z,19.50
2022-10-02T15:14:22.417Z,19.20
2022-10-02T15:19:27.787Z,19.20
2022-10-02T15:24:41.635Z,19.30
2022-10-02T15:29:55.599Z,19.20
2022-10-02T15:35:28.195Z,19.30
2022-10-02T15:40:44.992Z,19.30
2022-10-02T15:45:57.617Z,19.10
2022-10-02T15:51:14.452Z,18.90
2022-10-02T15:56:28.801Z,18.70
2022-10-02T16:01:55.304Z,18.40
2022-10-02T16:07:53.939Z,18.40
2022-10-02T16:13:34.448Z,18.20
2022-10-02T16:18:45.554Z,18.00
2022-10-02T16:24:07.626Z,17.80
2022-10-02T16:29:20.062Z,17.60
2022-10-02T16:34:43.814Z,17.40
2022-10-02T16:39:55.919Z,17.40
2022-10-02T16:45:04.114Z,17.10
2022-10-02T16:50:26.188Z,16.90
2022-10-02T16:55:35.768Z,16.70
2022-10-02T17:00:40.333Z,16.50
2022-10-02T17:05:49.674Z,16.30
2022-10-02T17:11:09.416Z,16.10
2022-10-02T17:16:18.858Z,16.00
2022-10-02T17:21:59.531Z,15.90
2022-10-02T17:27:27.602Z,15.80
